createdAt,value
2019-03-22T09:32:20.666Z,789.00
2019-03-22T09:32:22.316Z,784.00
2019-03-22T09:32:24.335Z,777.00
2019-03-22T09:32:26.290Z,778.00
2019-03-22T09:32:28.324Z,776.00
2019-03-22T09:32:30.321Z,777.00
2019-03-22T09:32:32.309Z,776.00
2019-03-22T09:32:34.339Z,777.00
2019-03-22T09:32:37.294Z,774.00
2019-03-22T09:32:39.353Z,774.00
2019-03-22T09:32:41.309Z,774.00
2019-03-22T09:32:43.365Z,774.00
2019-03-22T09:32:45.332Z,771.00
2019-03-22T09:32:48.303Z,770.00
2019-03-22T09:32:50.309Z,768.00
2019-03-22T09:32:52.331Z,767.00
2019-03-22T09:32:54.334Z,767.00
2019-03-22T09:32:56.328Z,765.00
2019-03-22T09:32:59.311Z,765.00
2019-03-22T09:33:01.343Z,765.00
2019-03-22T09:33:03.315Z,764.00
2019-03-22T09:33:05.300Z,764.00
2019-03-22T09:33:08.299Z,762.00
2019-03-22T09:33:09.678Z,759.00
2019-03-22T09:33:13.689Z,756.00
2019-03-22T09:33:15.506Z,753.00
2019-03-22T09:33:17.340Z,749.00
2019-03-22T09:33:19.299Z,752.00
2019-03-22T09:33:21.329Z,744.00
2019-03-22T09:33:23.324Z,737.00
2019-03-22T09:33:25.406Z,732.00
2019-03-22T09:33:27.319Z,731.00
2019-03-22T09:33:30.437Z,734.00
2019-03-22T09:33:32.388Z,734.00
2019-03-22T09:33:34.312Z,730.00
2019-03-22T09:33:36.329Z,725.00
2019-03-22T09:33:39.283Z,726.00
2019-03-22T09:33:40.658Z,722.00
2019-03-22T09:33:43.308Z,721.00
2019-03-22T09:33:45.316Z,720.00
2019-03-22T09:33:47.343Z,721.00
2019-03-22T09:33:50.325Z,723.00
2019-03-22T09:33:52.473Z,725.00
2019-03-22T09:33:54.298Z,725.00
2019-03-22T09:33:56.321Z,724.00
2019-03-22T09:33:58.325Z,723.00
2019-03-22T09:34:01.323Z,723.00
2019-03-22T09:34:03.365Z,722.00
2019-03-22T09:34:05.336Z,721.00
2019-03-22T09:34:07.386Z,720.00
2019-03-22T09:34:09.318Z,720.00
2019-03-22T09:34:12.408Z,721.00
2019-03-22T09:34:14.341Z,720.00
2019-03-22T09:34:16.369Z,719.00
2019-03-22T09:34:18.392Z,720.00
2019-03-22T09:34:33.710Z,721.00
2019-03-22T09:34:35.364Z,721.00
2019-03-22T09:34:37.332Z,723.00
2019-03-22T09:34:39.350Z,723.00
2019-03-22T09:34:41.322Z,722.00
2019-03-22T09:34:43.338Z,721.00
2019-03-22T09:34:45.340Z,721.00
2019-03-22T09:34:47.292Z,722.00
2019-03-22T09:34:49.352Z,722.00
2019-03-22T09:34:52.311Z,721.00
2019-03-22T09:34:54.375Z,721.00
2019-03-22T09:34:56.311Z,720.00
2019-03-22T09:35:00.031Z,719.00
2019-03-22T09:35:02.374Z,718.00
2019-03-22T09:35:04.302Z,719.00
2019-03-22T09:35:06.320Z,719.00
2019-03-22T09:35:08.345Z,718.00
2019-03-22T09:35:10.319Z,717.00
2019-03-22T09:35:12.397Z,717.00
2019-03-22T09:35:14.395Z,715.00
2019-03-22T09:35:16.303Z,714.00
2019-03-22T09:35:18.364Z,713.00
2019-03-22T09:35:20.304Z,711.00
2019-03-22T09:35:23.342Z,711.00
2019-03-22T09:35:24.749Z,710.00
2019-03-22T09:35:27.336Z,711.00
2019-03-22T09:35:29.337Z,712.00
2019-03-22T09:35:31.459Z,713.00
2019-03-22T09:35:34.362Z,713.00
2019-03-22T09:35:36.295Z,711.00
2019-03-22T09:35:38.392Z,710.00
2019-03-22T09:35:40.278Z,711.00
2019-03-22T09:35:42.321Z,711.00
2019-03-22T09:35:45.286Z,710.00
2019-03-22T09:35:47.364Z,708.00
2019-03-22T09:35:49.349Z,708.00
2019-03-22T09:35:51.401Z,707.00
2019-03-22T09:35:53.307Z,707.00
2019-03-22T09:35:56.314Z,705.00
2019-03-22T09:35:58.340Z,704.00
2019-03-22T09:36:00.344Z,704.00
2019-03-22T09:36:02.353Z,704.00
2019-03-22T09:36:05.341Z,705.00
2019-03-22T09:36:07.352Z,705.00
2019-03-22T09:36:09.315Z,706.00
2019-03-22T09:36:11.296Z,707.00
2019-03-22T09:36:13.298Z,706.00
2019-03-22T09:36:16.288Z,706.00
2019-03-22T09:36:18.432Z,706.00
2019-03-22T09:36:20.359Z,706.00
2019-03-22T09:36:22.278Z,704.00
2019-03-22T09:36:24.293Z,703.00
2019-03-22T09:36:27.311Z,703.00
2019-03-22T09:36:29.353Z,704.00
2019-03-22T09:36:31.305Z,704.00
2019-03-22T09:36:33.367Z,703.00
2019-03-22T09:36:36.385Z,704.00
2019-03-22T09:36:38.428Z,704.00
2019-03-22T09:36:40.309Z,704.00
2019-03-22T09:36:42.320Z,706.00
2019-03-22T09:36:44.358Z,707.00
2019-03-22T09:36:47.331Z,707.00
2019-03-22T09:36:49.373Z,708.00
2019-03-22T09:36:51.320Z,708.00
2019-03-22T09:36:53.391Z,709.00
2019-03-22T09:36:55.368Z,710.00
2019-03-22T09:36:58.297Z,710.00
2019-03-22T09:37:00.299Z,711.00
2019-03-22T09:37:02.343Z,711.00
2019-03-22T09:37:04.349Z,712.00
2019-03-22T09:37:09.305Z,712.00
2019-03-22T09:37:11.349Z,712.00
2019-03-22T09:37:13.359Z,711.00
2019-03-22T09:37:15.369Z,711.00
2019-03-22T09:37:17.316Z,711.00
2019-03-22T09:37:19.357Z,711.00
2019-03-22T09:37:21.312Z,712.00
2019-03-22T09:37:23.325Z,712.00
2019-03-22T09:37:25.354Z,714.00
2019-03-22T09:37:27.356Z,714.00
2019-03-22T09:37:29.322Z,713.00
2019-03-22T09:37:31.381Z,713.00
2019-03-22T09:37:33.307Z,714.00
2019-03-22T09:37:35.299Z,714.00
2019-03-22T09:37:38.311Z,714.00
2019-03-22T09:37:40.353Z,713.00
2019-03-22T09:37:42.383Z,712.00
2019-03-22T09:37:44.288Z,713.00
2019-03-22T09:37:46.344Z,713.00
2019-03-22T09:37:49.295Z,712.00
2019-03-22T09:37:51.313Z,712.00
2019-03-22T09:37:53.287Z,711.00
2019-03-22T09:37:55.348Z,711.00
2019-03-22T09:37:57.330Z,710.00
2019-03-22T09:38:12.828Z,710.00
2019-03-22T09:38:14.346Z,708.00
2019-03-22T09:38:16.396Z,708.00
2019-03-22T09:38:18.326Z,708.00
2019-03-22T09:38:20.342Z,709.00
2019-03-22T09:38:22.342Z,709.00
2019-03-22T09:38:24.367Z,709.00
2019-03-22T09:38:28.924Z,709.00
2019-03-22T09:38:30.304Z,709.00
2019-03-22T09:38:32.298Z,709.00
2019-03-22T09:38:34.324Z,709.00
2019-03-22T09:38:36.424Z,710.00
2019-03-22T09:38:38.339Z,710.00
2019-03-22T09:38:40.359Z,710.00
2019-03-22T09:38:42.396Z,710.00
2019-03-22T09:38:44.361Z,709.00
2019-03-22T09:38:46.305Z,710.00
2019-03-22T09:38:48.334Z,710.00
2019-03-22T09:38:51.330Z,709.00
2019-03-22T09:38:53.301Z,710.00
2019-03-22T09:38:55.283Z,710.00
2019-03-22T09:38:57.364Z,709.00
2019-03-22T09:38:59.343Z,709.00
2019-03-22T09:39:02.296Z,709.00
2019-03-22T09:39:04.421Z,709.00
2019-03-22T09:39:06.418Z,710.00
2019-03-22T09:39:08.343Z,711.00
2019-03-22T09:39:11.300Z,710.00
2019-03-22T09:39:13.324Z,709.00
2019-03-22T09:39:15.320Z,708.00
2019-03-22T09:39:17.347Z,708.00
2019-03-22T09:39:19.325Z,708.00
2019-03-22T09:39:22.288Z,708.00
2019-03-22T09:39:24.363Z,709.00
2019-03-22T09:39:26.358Z,710.00
2019-03-22T09:39:28.379Z,710.00
2019-03-22T09:39:30.357Z,711.00
2019-03-22T09:39:33.341Z,711.00
2019-03-22T09:39:35.289Z,712.00
2019-03-22T09:39:37.297Z,713.00
2019-03-22T09:39:39.363Z,715.00
2019-03-22T09:39:42.330Z,717.00
2019-03-22T09:39:44.281Z,723.00
2019-03-22T09:39:46.302Z,732.00
2019-03-22T09:39:48.428Z,731.00
2019-03-22T09:39:50.333Z,734.00
2019-03-22T09:39:53.332Z,739.00
2019-03-22T09:39:55.341Z,744.00
2019-03-22T09:39:57.305Z,744.00
2019-03-22T09:39:59.284Z,742.00
2019-03-22T09:40:01.404Z,740.00
2019-03-22T09:40:04.353Z,737.00
2019-03-22T09:40:08.938Z,733.00
2019-03-22T09:40:10.313Z,729.00
2019-03-22T09:40:13.361Z,729.00
2019-03-22T09:40:15.311Z,730.00
2019-03-22T09:40:17.410Z,731.00
2019-03-22T09:40:19.299Z,733.00
2019-03-22T09:40:21.332Z,734.00
2019-03-22T09:40:24.328Z,732.00
2019-03-22T09:40:26.318Z,730.00
2019-03-22T09:40:28.346Z,729.00
2019-03-22T09:40:30.292Z,729.00
2019-03-22T09:40:32.302Z,729.00
2019-03-22T09:40:35.359Z,729.00
2019-03-22T09:40:37.378Z,728.00
2019-03-22T09:40:39.339Z,728.00
2019-03-22T09:40:41.282Z,726.00
2019-03-22T09:40:44.282Z,726.00
2019-03-22T09:40:45.639Z,726.00
2019-03-22T09:40:47.732Z,724.00
2019-03-22T09:40:49.941Z,724.00
2019-03-22T09:40:52.341Z,723.00
2019-03-22T09:40:55.365Z,722.00
2019-03-22T09:40:57.297Z,722.00
2019-03-22T09:40:59.303Z,720.00
2019-03-22T09:41:01.356Z,720.00
2019-03-22T09:41:03.466Z,719.00
2019-03-22T09:41:06.339Z,719.00
2019-03-22T09:41:08.305Z,718.00
2019-03-22T09:41:10.300Z,718.00
2019-03-22T09:41:12.330Z,718.00
2019-03-22T09:41:15.286Z,717.00
2019-03-22T09:41:16.604Z,717.00
2019-03-22T09:41:18.743Z,718.00
2019-03-22T09:41:21.304Z,716.00
2019-03-22T09:41:23.366Z,716.00
2019-03-22T09:41:26.367Z,716.00
2019-03-22T09:41:28.327Z,715.00
2019-03-22T09:41:30.350Z,715.00
2019-03-22T09:41:32.402Z,714.00
2019-03-22T09:41:34.363Z,713.00
2019-03-22T09:41:37.317Z,713.00
2019-03-22T09:41:39.330Z,712.00
2019-03-22T09:41:41.332Z,711.00
2019-03-22T09:41:43.292Z,712.00
2019-03-22T09:41:45.312Z,711.00
2019-03-22T09:41:48.341Z,710.00
2019-03-22T09:41:50.305Z,709.00
2019-03-22T09:41:52.336Z,709.00
2019-03-22T09:41:54.306Z,709.00
2019-03-22T09:41:57.335Z,708.00
2019-03-22T09:41:59.360Z,708.00
2019-03-22T09:42:01.326Z,707.00
2019-03-22T09:42:03.365Z,706.00
2019-03-22T09:42:05.299Z,706.00
2019-03-22T09:42:08.342Z,706.00
2019-03-22T09:42:10.301Z,706.00
2019-03-22T09:42:12.356Z,705.00
2019-03-22T09:42:14.315Z,705.00
2019-03-22T09:42:17.328Z,704.00
2019-03-22T09:42:18.680Z,703.00
2019-03-22T09:42:21.314Z,702.00
2019-03-22T09:42:23.347Z,701.00
2019-03-22T09:42:25.433Z,701.00
2019-03-22T09:42:28.299Z,699.00
2019-03-22T09:42:30.354Z,698.00
2019-03-22T09:42:32.342Z,698.00
2019-03-22T09:42:34.325Z,697.00
2019-03-22T09:42:36.320Z,697.00
2019-03-22T09:42:39.345Z,697.00
2019-03-22T09:42:41.300Z,696.00
2019-03-22T09:42:43.289Z,697.00
2019-03-22T09:42:45.753Z,696.00
2019-03-22T09:42:48.427Z,696.00
2019-03-22T09:42:53.410Z,695.00
2019-03-22T09:42:55.392Z,693.00
2019-03-22T09:42:57.279Z,693.00
2019-03-22T09:42:59.374Z,693.00
2019-03-22T09:43:01.347Z,693.00
2019-03-22T09:43:03.289Z,693.00
2019-03-22T09:43:05.330Z,693.00
2019-03-22T09:43:07.292Z,694.00
2019-03-22T09:43:10.309Z,694.00
2019-03-22T09:43:12.402Z,694.00
2019-03-22T09:43:14.380Z,694.00
2019-03-22T09:43:16.312Z,695.00
2019-03-22T09:43:19.336Z,695.00
2019-03-22T09:43:20.628Z,695.00
2019-03-22T09:43:23.326Z,694.00
2019-03-22T09:43:25.337Z,694.00
2019-03-22T09:43:27.367Z,694.00
2019-03-22T09:43:30.333Z,694.00
2019-03-22T09:43:32.335Z,695.00
2019-03-22T09:43:34.338Z,696.00
2019-03-22T09:43:36.355Z,698.00
2019-03-22T09:43:38.324Z,699.00
2019-03-22T09:43:41.322Z,701.00
2019-03-22T09:43:43.359Z,706.00
2019-03-22T09:43:45.354Z,705.00
2019-03-22T09:43:47.282Z,708.00
2019-03-22T09:43:50.353Z,712.00
2019-03-22T09:43:51.665Z,718.00
2019-03-22T09:43:54.305Z,724.00
2019-03-22T09:43:56.342Z,728.00
2019-03-22T09:43:58.387Z,729.00
2019-03-22T09:44:01.372Z,727.00
2019-03-22T09:44:03.345Z,727.00
2019-03-22T09:44:05.378Z,727.00
2019-03-22T09:44:07.390Z,730.00
2019-03-22T09:44:09.306Z,729.00
2019-03-22T09:44:12.321Z,731.00
2019-03-22T09:44:14.299Z,727.00
2019-03-22T09:44:16.381Z,726.00
2019-03-22T09:44:18.299Z,726.00
2019-03-22T09:44:21.336Z,722.00
2019-03-22T09:44:22.707Z,722.00
2019-03-22T09:44:28.614Z,724.00
2019-03-22T09:44:43.062Z,719.00
2019-03-22T09:44:45.827Z,713.00
2019-03-22T09:44:47.325Z,712.00
2019-03-22T09:44:49.334Z,711.00
2019-03-22T09:44:52.325Z,710.00
2019-03-22T09:44:53.863Z,709.00
2019-03-22T09:44:56.345Z,708.00
2019-03-22T09:44:58.303Z,707.00
2019-03-22T09:45:00.548Z,706.00
2019-03-22T09:45:03.362Z,706.00
2019-03-22T09:45:05.301Z,706.00
2019-03-22T09:45:07.334Z,705.00
2019-03-22T09:45:09.330Z,704.00
2019-03-22T09:45:14.776Z,703.00
2019-03-22T09:45:16.317Z,700.00
2019-03-22T09:45:18.292Z,697.00
2019-03-22T09:45:20.312Z,695.00
2019-03-22T09:45:23.298Z,697.00
2019-03-22T09:45:24.708Z,699.00
2019-03-22T09:45:26.740Z,697.00
2019-03-22T09:45:29.076Z,691.00
2019-03-22T09:45:31.182Z,690.00
2019-03-22T09:45:34.297Z,686.00
2019-03-22T09:45:36.474Z,686.00
2019-03-22T09:45:38.301Z,685.00
2019-03-22T09:45:40.339Z,688.00
2019-03-22T09:45:42.317Z,691.00
2019-03-22T09:45:45.350Z,691.00
2019-03-22T09:45:47.293Z,690.00
2019-03-22T09:45:49.297Z,689.00
2019-03-22T09:45:51.349Z,688.00
2019-03-22T09:45:54.335Z,687.00
2019-03-22T09:45:55.693Z,685.00
2019-03-22T09:45:57.851Z,684.00
2019-03-22T09:45:59.997Z,683.00
2019-03-22T09:46:02.362Z,684.00
2019-03-22T09:46:05.321Z,682.00
2019-03-22T09:46:07.317Z,682.00
2019-03-22T09:46:09.327Z,682.00
2019-03-22T09:46:11.328Z,683.00
2019-03-22T09:46:13.419Z,683.00
2019-03-22T09:46:16.376Z,682.00
2019-03-22T09:46:18.308Z,681.00
2019-03-22T09:46:20.378Z,680.00
2019-03-22T09:46:22.298Z,679.00
2019-03-22T09:46:24.325Z,678.00
2019-03-22T09:46:27.374Z,677.00
2019-03-22T09:46:29.307Z,676.00
2019-03-22T09:46:31.356Z,675.00
2019-03-22T09:46:33.381Z,674.00
2019-03-22T09:46:36.407Z,672.00
2019-03-22T09:46:38.340Z,673.00
2019-03-22T09:46:40.368Z,671.00
2019-03-22T09:46:42.486Z,671.00
2019-03-22T09:46:44.300Z,670.00
2019-03-22T09:46:47.305Z,669.00
2019-03-22T09:46:49.291Z,671.00
2019-03-22T09:46:51.334Z,669.00
2019-03-22T09:46:53.302Z,669.00
2019-03-22T09:46:55.341Z,668.00
2019-03-22T09:46:58.338Z,665.00
2019-03-22T09:47:00.330Z,665.00
2019-03-22T09:47:02.297Z,664.00
2019-03-22T09:47:04.291Z,665.00
2019-03-22T09:47:07.338Z,664.00
2019-03-22T09:47:09.309Z,664.00
2019-03-22T09:47:11.398Z,663.00
2019-03-22T09:47:16.351Z,663.00
2019-03-22T09:47:18.358Z,658.00
2019-03-22T09:47:20.289Z,655.00
2019-03-22T09:47:22.315Z,654.00
2019-03-22T09:47:24.307Z,656.00
2019-03-22T09:47:26.321Z,656.00
2019-03-22T09:47:29.320Z,655.00
2019-03-22T09:47:31.319Z,654.00
2019-03-22T09:47:33.363Z,650.00
2019-03-22T09:47:35.364Z,649.00
2019-03-22T09:47:38.307Z,648.00
2019-03-22T09:47:39.630Z,647.00
2019-03-22T09:47:42.317Z,647.00
2019-03-22T09:47:44.344Z,647.00
2019-03-22T09:47:46.292Z,647.00
2019-03-22T09:47:49.358Z,647.00
2019-03-22T09:47:51.325Z,646.00
2019-03-22T09:47:53.287Z,643.00
2019-03-22T09:47:55.303Z,644.00
2019-03-22T09:47:57.292Z,643.00
2019-03-22T09:48:00.458Z,641.00
2019-03-22T09:48:02.307Z,642.00
2019-03-22T09:48:06.430Z,641.00
2019-03-22T09:48:08.297Z,642.00
2019-03-22T09:48:10.430Z,643.00
2019-03-22T09:48:12.284Z,643.00
2019-03-22T09:48:14.309Z,643.00
2019-03-22T09:48:16.287Z,645.00
2019-03-22T09:48:18.398Z,644.00
2019-03-22T09:48:20.308Z,644.00
2019-03-22T09:48:22.323Z,645.00
2019-03-22T09:48:24.317Z,645.00
2019-03-22T09:48:26.421Z,645.00
2019-03-22T09:48:28.369Z,645.00
2019-03-22T09:48:31.489Z,645.00
2019-03-22T09:48:33.600Z,646.00
2019-03-22T09:48:35.330Z,646.00
2019-03-22T09:48:37.331Z,647.00
2019-03-22T09:48:39.381Z,647.00
2019-03-22T09:48:42.306Z,646.00
2019-03-22T09:48:44.340Z,645.00
2019-03-22T09:48:46.403Z,644.00
2019-03-22T09:48:48.304Z,645.00
2019-03-22T09:48:51.355Z,645.00
2019-03-22T09:48:53.290Z,646.00
2019-03-22T09:48:55.324Z,646.00
2019-03-22T09:48:57.367Z,647.00
2019-03-22T09:48:59.304Z,648.00
2019-03-22T09:49:02.480Z,650.00
2019-03-22T09:49:04.330Z,652.00
2019-03-22T09:49:06.345Z,653.00
2019-03-22T09:49:08.311Z,655.00
2019-03-22T09:49:10.305Z,658.00
2019-03-22T09:49:13.306Z,664.00
2019-03-22T09:49:15.300Z,666.00
2019-03-22T09:49:17.298Z,675.00
2019-03-22T09:49:19.289Z,676.00
2019-03-22T09:49:22.290Z,676.00
2019-03-22T09:49:23.592Z,676.00
2019-03-22T09:49:26.295Z,681.00
2019-03-22T09:49:28.305Z,683.00
2019-03-22T09:49:30.281Z,682.00
2019-03-22T09:49:33.315Z,684.00
2019-03-22T09:49:35.360Z,684.00
2019-03-22T09:49:37.302Z,684.00
2019-03-22T09:49:39.313Z,682.00
2019-03-22T09:49:41.336Z,683.00
2019-03-22T09:49:44.321Z,680.00
2019-03-22T09:49:46.359Z,681.00
2019-03-22T09:49:51.645Z,679.00
2019-03-22T09:49:53.340Z,680.00
2019-03-22T09:49:55.390Z,680.00
2019-03-22T09:49:57.349Z,680.00
2019-03-22T09:49:59.333Z,680.00
2019-03-22T09:50:01.377Z,681.00
2019-03-22T09:50:04.422Z,682.00
2019-03-22T09:50:06.309Z,682.00
2019-03-22T09:50:08.319Z,681.00
2019-03-22T09:50:10.303Z,680.00
2019-03-22T09:50:12.370Z,679.00
2019-03-22T09:50:15.290Z,678.00
2019-03-22T09:50:17.297Z,678.00
2019-03-22T09:50:19.328Z,677.00
2019-03-22T09:50:21.329Z,676.00
2019-03-22T09:50:24.279Z,675.00
2019-03-22T09:50:25.596Z,675.00
2019-03-22T09:50:28.304Z,675.00
2019-03-22T09:50:30.295Z,674.00
2019-03-22T09:50:32.428Z,674.00
2019-03-22T09:50:35.357Z,673.00
2019-03-22T09:50:37.346Z,671.00
2019-03-22T09:50:39.349Z,671.00
2019-03-22T09:50:41.326Z,670.00
2019-03-22T09:50:43.311Z,668.00
2019-03-22T09:50:46.483Z,667.00
2019-03-22T09:50:48.314Z,666.00
2019-03-22T09:50:50.302Z,664.00
2019-03-22T09:50:52.303Z,663.00
2019-03-22T09:50:55.427Z,662.00
2019-03-22T09:50:56.767Z,660.00
2019-03-22T09:50:59.361Z,659.00
2019-03-22T09:51:01.337Z,657.00
2019-03-22T09:51:03.346Z,656.00
2019-03-22T09:51:06.344Z,656.00
2019-03-22T09:51:08.301Z,655.00
2019-03-22T09:51:10.347Z,653.00
2019-03-22T09:51:12.378Z,654.00
2019-03-22T09:51:14.349Z,653.00
2019-03-22T09:51:17.303Z,653.00
2019-03-22T09:51:19.490Z,652.00
2019-03-22T09:51:21.313Z,652.00
2019-03-22T09:51:23.385Z,651.00
2019-03-22T09:51:26.362Z,649.00
2019-03-22T09:51:28.340Z,649.00
2019-03-22T09:51:30.386Z,648.00
2019-03-22T09:51:32.481Z,648.00
2019-03-22T09:51:34.442Z,649.00
2019-03-22T09:51:37.429Z,650.00
2019-03-22T09:51:39.359Z,650.00
2019-03-22T09:51:41.358Z,650.00
2019-03-22T09:51:43.312Z,651.00
2019-03-22T09:51:45.310Z,651.00
2019-03-22T09:51:48.313Z,651.00
2019-03-22T09:51:50.293Z,652.00
2019-03-22T09:51:55.555Z,652.00
2019-03-22T09:51:57.307Z,653.00
2019-03-22T09:51:59.349Z,654.00
2019-03-22T09:52:01.293Z,653.00
2019-03-22T09:52:03.380Z,652.00
2019-03-22T09:52:05.329Z,652.00
2019-03-22T09:52:08.448Z,651.00
2019-03-22T09:52:10.372Z,651.00
2019-03-22T09:52:12.344Z,651.00
2019-03-22T09:52:14.314Z,651.00
2019-03-22T09:52:16.421Z,651.00
2019-03-22T09:52:19.350Z,651.00
2019-03-22T09:52:21.388Z,649.00
2019-03-22T09:52:23.392Z,649.00
2019-03-22T09:52:25.349Z,647.00
2019-03-22T09:52:28.354Z,645.00
2019-03-22T09:52:32.449Z,642.00
2019-03-22T09:52:35.365Z,637.00
2019-03-22T09:52:37.319Z,635.00
2019-03-22T09:52:39.324Z,632.00
2019-03-22T09:52:41.691Z,632.00
2019-03-22T09:52:43.347Z,629.00
2019-03-22T09:52:45.408Z,628.00
2019-03-22T09:52:48.347Z,630.00
2019-03-22T09:52:49.709Z,630.00
2019-03-22T09:52:52.374Z,632.00
2019-03-22T09:52:54.352Z,635.00
2019-03-22T09:52:56.339Z,634.00
2019-03-22T09:52:59.317Z,629.00
2019-03-22T09:53:01.358Z,627.00
2019-03-22T09:53:03.369Z,626.00
2019-03-22T09:53:05.279Z,627.00
2019-03-22T09:53:07.437Z,627.00
2019-03-22T09:53:10.307Z,628.00
2019-03-22T09:53:12.416Z,627.00
2019-03-22T09:53:14.332Z,627.00
2019-03-22T09:53:16.331Z,627.00
2019-03-22T09:53:19.313Z,628.00
2019-03-22T09:53:20.685Z,626.00
2019-03-22T09:53:23.358Z,627.00
2019-03-22T09:53:25.329Z,627.00
2019-03-22T09:53:30.675Z,626.00
2019-03-22T09:53:32.310Z,628.00
2019-03-22T09:54:54.550Z,696.00
2019-03-22T09:54:56.337Z,712.00
2019-03-22T09:55:11.871Z,715.00
2019-03-22T09:55:14.132Z,723.00
2019-03-22T09:55:16.483Z,764.00
2019-03-22T09:55:18.359Z,808.00
2019-03-22T09:55:20.364Z,815.00
2019-03-22T09:55:22.385Z,851.00
2019-03-22T09:55:24.340Z,843.00
2019-03-22T09:55:27.352Z,843.00
2019-03-22T09:55:29.455Z,845.00
2019-03-22T09:55:31.342Z,845.00
2019-03-22T09:55:33.317Z,840.00
2019-03-22T09:55:35.307Z,845.00
2019-03-22T09:55:38.358Z,841.00
2019-03-22T09:55:40.304Z,836.00
2019-03-22T09:55:42.309Z,829.00
2019-03-22T09:55:44.297Z,820.00
2019-03-22T09:55:47.369Z,812.00
2019-03-22T09:55:49.326Z,797.00
2019-03-22T09:55:51.351Z,777.00
2019-03-22T09:55:53.404Z,754.00
2019-03-22T09:55:55.438Z,745.00
2019-03-22T09:55:58.345Z,737.00
2019-03-22T09:56:00.373Z,724.00
2019-03-22T09:56:02.362Z,721.00
2019-03-22T09:56:10.257Z,715.00
2019-03-22T09:56:12.390Z,710.00
2019-03-22T09:56:14.394Z,708.00
2019-03-22T09:56:16.349Z,704.00
2019-03-22T09:56:18.410Z,702.00
2019-03-22T09:56:20.350Z,702.00
2019-03-22T09:56:22.438Z,700.00
2019-03-22T09:56:24.339Z,700.00
2019-03-22T09:56:26.385Z,699.00
2019-03-22T09:56:29.472Z,698.00
2019-03-22T09:56:31.364Z,695.00
2019-03-22T09:56:47.016Z,694.00
2019-03-22T09:56:47.782Z,694.00
2019-03-22T09:56:49.323Z,695.00
2019-03-22T09:56:51.393Z,694.00
2019-03-22T09:56:53.353Z,693.00
2019-03-22T09:56:55.352Z,693.00
2019-03-22T09:56:57.350Z,692.00
2019-03-22T09:57:00.312Z,693.00
2019-03-22T09:57:02.379Z,693.00
2019-03-22T09:57:04.357Z,693.00
2019-03-22T09:57:06.328Z,693.00
2019-03-22T09:57:08.305Z,693.00
2019-03-22T09:57:11.347Z,692.00
2019-03-22T09:57:13.397Z,693.00
2019-03-22T09:57:15.342Z,692.00
2019-03-22T09:57:17.302Z,693.00
2019-03-22T09:57:20.315Z,694.00
2019-03-22T09:57:21.717Z,695.00
2019-03-22T09:57:24.295Z,695.00
2019-03-22T09:57:26.390Z,696.00
2019-03-22T09:57:28.377Z,697.00
2019-03-22T09:57:31.350Z,698.00
2019-03-22T09:57:33.371Z,699.00
2019-03-22T09:57:35.386Z,702.00
2019-03-22T09:57:37.326Z,706.00
2019-03-22T09:57:39.372Z,713.00
2019-03-22T09:57:42.330Z,719.00
2019-03-22T09:57:44.322Z,721.00
2019-03-22T09:57:49.657Z,725.00
2019-03-22T09:57:51.457Z,729.00
2019-03-22T09:57:53.352Z,731.00
2019-03-22T09:57:55.363Z,731.00
2019-03-22T09:57:57.336Z,733.00
2019-03-22T09:57:59.406Z,732.00
2019-03-22T09:58:02.372Z,733.00
2019-03-22T09:58:04.395Z,732.00
2019-03-22T09:58:06.362Z,730.00
2019-03-22T09:58:08.357Z,728.00
2019-03-22T09:58:10.411Z,729.00
2019-03-22T09:58:13.314Z,729.00
2019-03-22T09:58:15.322Z,731.00
2019-03-22T09:58:17.298Z,735.00
2019-03-22T09:58:19.300Z,738.00
2019-03-22T09:58:21.313Z,738.00
2019-03-22T09:58:24.354Z,737.00
2019-03-22T09:58:26.333Z,735.00
2019-03-22T09:58:28.311Z,733.00
2019-03-22T09:58:30.357Z,730.00
2019-03-22T09:58:32.423Z,729.00
2019-03-22T09:58:35.357Z,728.00
2019-03-22T09:58:37.406Z,726.00
2019-03-22T09:58:39.356Z,724.00
2019-03-22T09:58:41.456Z,723.00
2019-03-22T09:58:44.329Z,722.00
2019-03-22T09:58:45.662Z,723.00
2019-03-22T09:58:48.321Z,723.00
2019-03-22T09:58:50.295Z,723.00
2019-03-22T09:58:52.311Z,723.00
2019-03-22T09:58:55.363Z,723.00
2019-03-22T09:58:57.347Z,723.00
2019-03-22T09:58:59.313Z,722.00
2019-03-22T09:59:01.306Z,723.00
2019-03-22T09:59:03.334Z,723.00
2019-03-22T09:59:06.331Z,723.00
2019-03-22T09:59:08.337Z,723.00
2019-03-22T09:59:10.304Z,722.00
2019-03-22T09:59:12.295Z,722.00
2019-03-22T09:59:14.287Z,721.00
2019-03-22T09:59:17.304Z,721.00
2019-03-22T09:59:19.424Z,721.00
2019-03-22T09:59:21.351Z,722.00
2019-03-22T09:59:23.304Z,721.00
2019-03-22T09:59:25.376Z,721.00
2019-03-22T09:59:28.351Z,721.00
2019-03-22T09:59:30.321Z,720.00
2019-03-22T09:59:32.320Z,721.00
2019-03-22T09:59:34.366Z,721.00
2019-03-22T09:59:37.371Z,721.00
2019-03-22T09:59:39.508Z,720.00
2019-03-22T09:59:41.292Z,720.00
2019-03-22T09:59:43.290Z,719.00
2019-03-22T09:59:45.316Z,720.00
2019-03-22T09:59:48.327Z,721.00
2019-03-22T09:59:50.333Z,720.00
2019-03-22T09:59:52.326Z,720.00
2019-03-22T09:59:54.313Z,720.00
2019-03-22T09:59:56.324Z,719.00
2019-03-22T09:59:59.351Z,719.00
2019-03-22T10:00:01.344Z,718.00
2019-03-22T10:00:03.362Z,718.00
2019-03-22T10:00:05.357Z,718.00
2019-03-22T10:00:08.399Z,718.00
2019-03-22T10:00:09.730Z,718.00
2019-03-22T10:00:12.283Z,717.00
2019-03-22T10:00:14.322Z,718.00
2019-03-22T10:00:16.360Z,718.00
2019-03-22T10:00:19.343Z,718.00
2019-03-22T10:00:21.293Z,718.00
2019-03-22T10:00:23.347Z,719.00
2019-03-22T10:00:25.346Z,719.00
2019-03-22T10:00:27.314Z,718.00
2019-03-22T10:00:30.340Z,718.00
2019-03-22T10:00:32.377Z,718.00
2019-03-22T10:00:34.302Z,718.00
2019-03-22T10:00:36.292Z,718.00
2019-03-22T10:00:38.325Z,718.00
2019-03-22T10:00:41.286Z,718.00
2019-03-22T10:00:43.568Z,718.00
2019-03-22T10:00:49.122Z,718.00
2019-03-22T10:00:51.418Z,716.00
2019-03-22T10:00:53.559Z,715.00
2019-03-22T10:00:55.549Z,713.00
2019-03-22T10:00:57.426Z,711.00
2019-03-22T10:00:59.454Z,710.00
2019-03-22T10:01:01.450Z,708.00
2019-03-22T10:01:03.536Z,705.00
2019-03-22T10:01:05.420Z,703.00
2019-03-22T10:01:07.504Z,699.00
2019-03-22T10:01:09.352Z,698.00
2019-03-22T10:01:23.655Z,697.00
2019-03-22T10:01:26.533Z,693.00
2019-03-22T10:01:28.333Z,692.00
2019-03-22T10:01:30.339Z,692.00
2019-03-22T10:01:32.345Z,692.00
2019-03-22T10:01:34.353Z,692.00
2019-03-22T10:01:36.306Z,693.00
2019-03-22T10:01:38.348Z,694.00
2019-03-22T10:01:40.369Z,695.00
2019-03-22T10:01:43.315Z,695.00
2019-03-22T10:01:45.329Z,696.00
2019-03-22T10:01:47.314Z,696.00
2019-03-22T10:01:49.383Z,697.00
2019-03-22T10:01:51.334Z,698.00
2019-03-22T10:01:54.358Z,697.00
2019-03-22T10:01:56.382Z,697.00
2019-03-22T10:01:58.337Z,698.00
2019-03-22T10:02:00.306Z,699.00
2019-03-22T10:02:02.345Z,700.00
2019-03-22T10:02:05.388Z,702.00
2019-03-22T10:02:07.338Z,702.00
2019-03-22T10:02:09.327Z,703.00
2019-03-22T10:02:11.319Z,703.00
2019-03-22T10:02:13.349Z,703.00
2019-03-22T10:02:16.382Z,703.00
2019-03-22T10:02:18.341Z,703.00
2019-03-22T10:02:20.367Z,703.00
2019-03-22T10:02:22.389Z,702.00
2019-03-22T10:02:24.357Z,702.00
2019-03-22T10:02:27.353Z,702.00
2019-03-22T10:02:29.303Z,702.00
2019-03-22T10:02:31.288Z,702.00
2019-03-22T10:02:33.310Z,702.00
2019-03-22T10:02:36.285Z,700.00
2019-03-22T10:02:37.600Z,700.00
2019-03-22T10:02:40.360Z,698.00
2019-03-22T10:02:42.412Z,696.00
2019-03-22T10:02:44.325Z,695.00
2019-03-22T10:02:47.321Z,694.00
2019-03-22T10:02:49.394Z,694.00
2019-03-22T10:02:51.353Z,694.00
2019-03-22T10:02:53.362Z,690.00